sensor_id;sensor_type;location;lat;lon;timestamp;P1;durP1;ratioP1;P2;durP2;ratioP2
31692;SDS011;37436;53.230;6.614;2023-01-16T00:02:01;3.28;;;2.10;;
31692;SDS011;37436;53.230;6.614;2023-01-16T00:04:28;11.82;;;3.67;;
31692;SDS011;37436;53.230;6.614;2023-01-16T00:06:54;5.57;;;2.90;;
31692;SDS011;37436;53.230;6.614;2023-01-16T00:09:20;6.97;;;3.72;;
31692;SDS011;37436;53.230;6.614;2023-01-16T00:11:46;14.20;;;3.63;;
31692;SDS011;37436;53.230;6.614;2023-01-16T00:14:12;7.38;;;3.53;;
31692;SDS011;37436;53.230;6.614;2023-01-16T00:16:39;8.90;;;2.47;;
31692;SDS011;37436;53.230;6.614;2023-01-16T00:19:05;11.80;;;3.80;;
31692;SDS011;37436;53.230;6.614;2023-01-16T00:21:31;7.13;;;3.60;;
31692;SDS011;37436;53.230;6.614;2023-01-16T00:23:57;14.50;;;4.25;;
31692;SDS011;37436;53.230;6.614;2023-01-16T00:26:24;8.27;;;3.65;;
31692;SDS011;37436;53.230;6.614;2023-01-16T00:28:50;12.27;;;3.45;;
31692;SDS011;37436;53.230;6.614;2023-01-16T00:31:16;7.13;;;3.92;;
31692;SDS011;37436;53.230;6.614;2023-01-16T00:33:43;15.55;;;5.25;;
31692;SDS011;37436;53.230;6.614;2023-01-16T00:36:09;11.23;;;4.30;;
31692;SDS011;37436;53.230;6.614;2023-01-16T00:38:36;6.88;;;3.45;;
31692;SDS011;37436;53.230;6.614;2023-01-16T00:41:02;7.53;;;3.75;;
31692;SDS011;37436;53.230;6.614;2023-01-16T00:43:28;11.98;;;3.67;;
31692;SDS011;37436;53.230;6.614;2023-01-16T00:45:54;9.68;;;3.42;;
31692;SDS011;37436;53.230;6.614;2023-01-16T00:48:21;3.47;;;1.58;;
31692;SDS011;37436;53.230;6.614;2023-01-16T00:50:48;7.15;;;2.70;;
31692;SDS011;37436;53.230;6.614;2023-01-16T00:53:14;5.22;;;2.28;;
31692;SDS011;37436;53.230;6.614;2023-01-16T00:55:40;11.52;;;2.67;;
31692;SDS011;37436;53.230;6.614;2023-01-16T00:58:09;7.95;;;3.33;;
31692;SDS011;37436;53.230;6.614;2023-01-16T01:00:36;13.57;;;3.08;;
31692;SDS011;37436;53.230;6.614;2023-01-16T01:03:02;8.88;;;3.15;;
31692;SDS011;37436;53.230;6.614;2023-01-16T01:05:29;9.75;;;3.00;;
31692;SDS011;37436;53.230;6.614;2023-01-16T01:07:55;7.63;;;2.78;;
31692;SDS011;37436;53.230;6.614;2023-01-16T01:10:21;10.00;;;2.95;;
31692;SDS011;37436;53.230;6.614;2023-01-16T01:12:47;8.38;;;2.45;;
31692;SDS011;37436;53.230;6.614;2023-01-16T01:15:13;15.07;;;2.20;;
31692;SDS011;37436;53.230;6.614;2023-01-16T01:17:39;7.72;;;2.22;;
31692;SDS011;37436;53.230;6.614;2023-01-16T01:20:05;8.68;;;2.60;;
31692;SDS011;37436;53.230;6.614;2023-01-16T01:22:31;7.72;;;2.92;;
31692;SDS011;37436;53.230;6.614;2023-01-16T01:24:58;7.75;;;2.70;;
31692;SDS011;37436;53.230;6.614;2023-01-16T01:27:24;7.07;;;2.35;;
31692;SDS011;37436;53.230;6.614;2023-01-16T01:29:50;10.50;;;3.88;;
31692;SDS011;37436;53.230;6.614;2023-01-16T01:32:16;14.23;;;3.33;;
31692;SDS011;37436;53.230;6.614;2023-01-16T01:34:48;6.57;;;3.28;;
31692;SDS011;37436;53.230;6.614;2023-01-16T01:37:14;10.77;;;3.78;;
31692;SDS011;37436;53.230;6.614;2023-01-16T01:39:40;11.77;;;4.25;;
31692;SDS011;37436;53.230;6.614;2023-01-16T01:42:09;8.00;;;4.10;;
31692;SDS011;37436;53.230;6.614;2023-01-16T01:44:55;12.40;;;4.63;;
31692;SDS011;37436;53.230;6.614;2023-01-16T01:47:23;12.68;;;5.38;;
31692;SDS011;37436;53.230;6.614;2023-01-16T01:49:51;16.45;;;5.18;;
31692;SDS011;37436;53.230;6.614;2023-01-16T01:52:30;12.55;;;4.97;;
31692;SDS011;37436;53.230;6.614;2023-01-16T01:54:59;11.02;;;4.90;;
31692;SDS011;37436;53.230;6.614;2023-01-16T01:57:45;8.75;;;4.13;;
31692;SDS011;37436;53.230;6.614;2023-01-16T02:00:14;13.25;;;4.28;;
31692;SDS011;37436;53.230;6.614;2023-01-16T02:02:43;8.10;;;3.10;;
31692;SDS011;37436;53.230;6.614;2023-01-16T02:05:10;10.48;;;3.47;;
31692;SDS011;37436;53.230;6.614;2023-01-16T02:07:38;6.30;;;2.72;;
31692;SDS011;37436;53.230;6.614;2023-01-16T02:10:15;9.50;;;2.72;;
31692;SDS011;37436;53.230;6.614;2023-01-16T02:12:45;17.02;;;2.72;;
31692;SDS011;37436;53.230;6.614;2023-01-16T02:15:12;8.73;;;2.92;;
31692;SDS011;37436;53.230;6.614;2023-01-16T02:17:43;8.45;;;2.78;;
31692;SDS011;37436;53.230;6.614;2023-01-16T02:20:27;14.13;;;3.13;;
31692;SDS011;37436;53.230;6.614;2023-01-16T02:46:50;7.40;;;3.65;;
31692;SDS011;37436;53.230;6.614;2023-01-16T02:49:22;9.93;;;3.50;;
31692;SDS011;37436;53.230;6.614;2023-01-16T02:52:03;18.30;;;4.20;;
31692;SDS011;37436;53.230;6.614;2023-01-16T02:54:44;11.52;;;3.92;;
31692;SDS011;37436;53.230;6.614;2023-01-16T02:57:17;15.40;;;3.65;;
31692;SDS011;37436;53.230;6.614;2023-01-16T02:59:44;14.40;;;3.55;;
31692;SDS011;37436;53.230;6.614;2023-01-16T03:02:10;12.02;;;2.70;;
31692;SDS011;37436;53.230;6.614;2023-01-16T03:09:31;16.25;;;3.10;;
31692;SDS011;37436;53.230;6.614;2023-01-16T03:14:28;7.07;;;2.70;;
31692;SDS011;37436;53.230;6.614;2023-01-16T03:20:07;9.57;;;2.25;;
31692;SDS011;37436;53.230;6.614;2023-01-16T03:22:46;7.38;;;2.35;;
31692;SDS011;37436;53.230;6.614;2023-01-16T03:33:04;10.85;;;2.65;;
31692;SDS011;37436;53.230;6.614;2023-01-16T03:35:33;8.10;;;2.47;;
31692;SDS011;37436;53.230;6.614;2023-01-16T03:38:01;8.63;;;2.78;;
31692;SDS011;37436;53.230;6.614;2023-01-16T03:40:30;11.43;;;3.08;;
31692;SDS011;37436;53.230;6.614;2023-01-16T03:43:01;12.02;;;2.85;;
31692;SDS011;37436;53.230;6.614;2023-01-16T03:45:32;13.77;;;2.85;;
31692;SDS011;37436;53.230;6.614;2023-01-16T03:48:01;11.50;;;3.08;;
31692;SDS011;37436;53.230;6.614;2023-01-16T03:50:29;14.00;;;4.07;;
31692;SDS011;37436;53.230;6.614;2023-01-16T03:52:57;13.93;;;3.95;;
31692;SDS011;37436;53.230;6.614;2023-01-16T03:55:36;7.85;;;4.05;;
31692;SDS011;37436;53.230;6.614;2023-01-16T03:58:08;23.02;;;5.28;;
31692;SDS011;37436;53.230;6.614;2023-01-16T04:00:38;14.50;;;4.90;;
31692;SDS011;37436;53.230;6.614;2023-01-16T04:03:07;16.05;;;4.53;;
31692;SDS011;37436;53.230;6.614;2023-01-16T04:06:09;11.93;;;3.67;;
31692;SDS011;37436;53.230;6.614;2023-01-16T04:08:27;8.85;;;3.20;;
31692;SDS011;37436;53.230;6.614;2023-01-16T04:10:54;13.02;;;3.28;;
31692;SDS011;37436;53.230;6.614;2023-01-16T04:13:26;11.20;;;4.40;;
31692;SDS011;37436;53.230;6.614;2023-01-16T04:15:54;11.32;;;4.10;;
31692;SDS011;37436;53.230;6.614;2023-01-16T04:18:22;10.30;;;4.13;;
31692;SDS011;37436;53.230;6.614;2023-01-16T04:20:49;8.27;;;2.75;;
31692;SDS011;37436;53.230;6.614;2023-01-16T04:23:15;11.05;;;3.35;;
31692;SDS011;37436;53.230;6.614;2023-01-16T04:25:42;5.45;;;2.00;;
31692;SDS011;37436;53.230;6.614;2023-01-16T04:28:08;13.75;;;2.95;;
31692;SDS011;37436;53.230;6.614;2023-01-16T04:30:34;5.43;;;2.38;;
31692;SDS011;37436;53.230;6.614;2023-01-16T04:33:01;10.88;;;3.38;;
31692;SDS011;37436;53.230;6.614;2023-01-16T04:35:27;4.75;;;2.50;;
31692;SDS011;37436;53.230;6.614;2023-01-16T04:37:53;5.72;;;2.60;;
31692;SDS011;37436;53.230;6.614;2023-01-16T04:40:19;7.00;;;2.83;;
31692;SDS011;37436;53.230;6.614;2023-01-16T04:42:45;6.22;;;3.15;;
31692;SDS011;37436;53.230;6.614;2023-01-16T04:45:11;6.65;;;1.55;;
31692;SDS011;37436;53.230;6.614;2023-01-16T04:47:37;12.55;;;3.50;;
31692;SDS011;37436;53.230;6.614;2023-01-16T04:50:03;13.52;;;3.47;;
31692;SDS011;37436;53.230;6.614;2023-01-16T04:52:30;19.02;;;3.33;;
31692;SDS011;37436;53.230;6.614;2023-01-16T04:54:56;4.57;;;2.60;;
31692;SDS011;37436;53.230;6.614;2023-01-16T04:57:22;7.10;;;2.72;;
31692;SDS011;37436;53.230;6.614;2023-01-16T04:59:48;10.15;;;3.25;;
31692;SDS011;37436;53.230;6.614;2023-01-16T05:02:14;11.98;;;4.07;;
31692;SDS011;37436;53.230;6.614;2023-01-16T05:04:40;14.70;;;4.28;;
31692;SDS011;37436;53.230;6.614;2023-01-16T05:07:06;11.60;;;4.10;;
31692;SDS011;37436;53.230;6.614;2023-01-16T05:09:32;16.92;;;4.45;;
31692;SDS011;37436;53.230;6.614;2023-01-16T05:11:58;14.25;;;3.70;;
31692;SDS011;37436;53.230;6.614;2023-01-16T05:14:24;11.43;;;4.68;;
31692;SDS011;37436;53.230;6.614;2023-01-16T05:16:50;9.63;;;4.22;;
31692;SDS011;37436;53.230;6.614;2023-01-16T05:19:16;8.85;;;4.55;;
31692;SDS011;37436;53.230;6.614;2023-01-16T05:21:42;9.02;;;4.05;;
31692;SDS011;37436;53.230;6.614;2023-01-16T05:24:08;28.35;;;6.32;;
31692;SDS011;37436;53.230;6.614;2023-01-16T05:26:34;20.42;;;5.20;;
31692;SDS011;37436;53.230;6.614;2023-01-16T05:29:00;16.70;;;6.00;;
31692;SDS011;37436;53.230;6.614;2023-01-16T05:31:26;18.10;;;6.78;;
31692;SDS011;37436;53.230;6.614;2023-01-16T05:33:52;19.40;;;6.07;;
31692;SDS011;37436;53.230;6.614;2023-01-16T05:36:18;13.80;;;4.97;;
31692;SDS011;37436;53.230;6.614;2023-01-16T05:38:44;16.90;;;5.78;;
31692;SDS011;37436;53.230;6.614;2023-01-16T05:41:11;16.17;;;5.70;;
31692;SDS011;37436;53.230;6.614;2023-01-16T05:43:37;19.05;;;4.63;;
31692;SDS011;37436;53.230;6.614;2023-01-16T05:46:04;14.88;;;5.47;;
31692;SDS011;37436;53.230;6.614;2023-01-16T05:48:30;16.45;;;5.03;;
31692;SDS011;37436;53.230;6.614;2023-01-16T05:50:57;13.90;;;5.63;;
31692;SDS011;37436;53.230;6.614;2023-01-16T05:53:23;15.60;;;5.65;;
31692;SDS011;37436;53.230;6.614;2023-01-16T05:55:53;18.75;;;6.10;;
31692;SDS011;37436;53.230;6.614;2023-01-16T05:58:19;13.48;;;5.85;;
31692;SDS011;37436;53.230;6.614;2023-01-16T06:00:45;17.95;;;5.28;;
31692;SDS011;37436;53.230;6.614;2023-01-16T06:03:11;19.13;;;6.72;;
31692;SDS011;37436;53.230;6.614;2023-01-16T06:05:37;14.07;;;5.32;;
31692;SDS011;37436;53.230;6.614;2023-01-16T06:08:03;20.92;;;6.35;;
31692;SDS011;37436;53.230;6.614;2023-01-16T06:10:29;14.60;;;7.30;;
31692;SDS011;37436;53.230;6.614;2023-01-16T06:12:56;16.45;;;6.97;;
31692;SDS011;37436;53.230;6.614;2023-01-16T06:15:22;22.27;;;6.88;;
31692;SDS011;37436;53.230;6.614;2023-01-16T06:17:48;20.77;;;6.55;;
31692;SDS011;37436;53.230;6.614;2023-01-16T06:20:17;15.50;;;5.88;;
31692;SDS011;37436;53.230;6.614;2023-01-16T06:22:43;14.07;;;6.28;;
31692;SDS011;37436;53.230;6.614;2023-01-16T06:25:10;10.27;;;5.32;;
31692;SDS011;37436;53.230;6.614;2023-01-16T06:27:36;15.45;;;6.30;;
31692;SDS011;37436;53.230;6.614;2023-01-16T06:30:03;26.17;;;6.50;;
31692;SDS011;37436;53.230;6.614;2023-01-16T06:32:29;19.08;;;6.70;;
31692;SDS011;37436;53.230;6.614;2023-01-16T06:34:55;24.33;;;7.40;;
31692;SDS011;37436;53.230;6.614;2023-01-16T06:37:24;17.65;;;7.10;;
31692;SDS011;37436;53.230;6.614;2023-01-16T06:39:50;22.25;;;8.13;;
31692;SDS011;37436;53.230;6.614;2023-01-16T06:42:16;20.65;;;7.97;;
31692;SDS011;37436;53.230;6.614;2023-01-16T06:44:42;26.85;;;8.93;;
31692;SDS011;37436;53.230;6.614;2023-01-16T06:47:08;24.10;;;8.98;;
31692;SDS011;37436;53.230;6.614;2023-01-16T06:49:34;26.83;;;9.27;;
31692;SDS011;37436;53.230;6.614;2023-01-16T06:52:00;21.80;;;7.57;;
31692;SDS011;37436;53.230;6.614;2023-01-16T06:54:26;25.35;;;7.63;;
31692;SDS011;37436;53.230;6.614;2023-01-16T06:56:53;16.42;;;8.02;;
31692;SDS011;37436;53.230;6.614;2023-01-16T06:59:19;25.58;;;8.48;;
31692;SDS011;37436;53.230;6.614;2023-01-16T07:01:45;18.38;;;7.80;;
31692;SDS011;37436;53.230;6.614;2023-01-16T07:04:11;21.38;;;8.52;;
31692;SDS011;37436;53.230;6.614;2023-01-16T07:06:37;21.75;;;7.63;;
31692;SDS011;37436;53.230;6.614;2023-01-16T07:09:04;15.93;;;7.40;;
31692;SDS011;37436;53.230;6.614;2023-01-16T07:11:31;25.45;;;7.28;;
31692;SDS011;37436;53.230;6.614;2023-01-16T07:13:57;18.58;;;7.97;;
31692;SDS011;37436;53.230;6.614;2023-01-16T07:16:42;17.63;;;6.68;;
31692;SDS011;37436;53.230;6.614;2023-01-16T07:19:26;21.30;;;6.75;;
31692;SDS011;37436;53.230;6.614;2023-01-16T07:22:11;17.80;;;6.80;;
31692;SDS011;37436;53.230;6.614;2023-01-16T07:24:56;23.52;;;6.40;;
31692;SDS011;37436;53.230;6.614;2023-01-16T07:27:22;20.70;;;6.15;;
31692;SDS011;37436;53.230;6.614;2023-01-16T07:29:49;21.15;;;7.57;;
31692;SDS011;37436;53.230;6.614;2023-01-16T07:32:15;19.55;;;7.20;;
31692;SDS011;37436;53.230;6.614;2023-01-16T07:34:41;20.85;;;8.02;;
31692;SDS011;37436;53.230;6.614;2023-01-16T07:37:07;15.75;;;7.15;;
31692;SDS011;37436;53.230;6.614;2023-01-16T07:39:41;18.13;;;7.07;;
31692;SDS011;37436;53.230;6.614;2023-01-16T07:42:07;28.55;;;7.13;;
31692;SDS011;37436;53.230;6.614;2023-01-16T07:44:34;19.77;;;5.60;;
31692;SDS011;37436;53.230;6.614;2023-01-16T07:47:00;14.93;;;6.45;;
31692;SDS011;37436;53.230;6.614;2023-01-16T07:49:26;19.80;;;7.20;;
31692;SDS011;37436;53.230;6.614;2023-01-16T07:51:59;19.55;;;7.20;;
31692;SDS011;37436;53.230;6.614;2023-01-16T07:54:25;15.18;;;6.32;;
31692;SDS011;37436;53.230;6.614;2023-01-16T07:56:51;9.75;;;5.05;;
31692;SDS011;37436;53.230;6.614;2023-01-16T07:59:17;19.02;;;6.60;;
31692;SDS011;37436;53.230;6.614;2023-01-16T08:01:43;21.67;;;6.47;;
31692;SDS011;37436;53.230;6.614;2023-01-16T08:04:18;12.10;;;5.60;;
31692;SDS011;37436;53.230;6.614;2023-01-16T08:06:44;16.95;;;5.75;;
31692;SDS011;37436;53.230;6.614;2023-01-16T08:09:10;15.35;;;6.07;;
31692;SDS011;37436;53.230;6.614;2023-01-16T08:11:36;24.67;;;6.85;;
31692;SDS011;37436;53.230;6.614;2023-01-16T08:14:04;18.63;;;6.28;;
31692;SDS011;37436;53.230;6.614;2023-01-16T08:16:33;22.75;;;6.78;;
31692;SDS011;37436;53.230;6.614;2023-01-16T08:18:59;19.38;;;6.38;;
31692;SDS011;37436;53.230;6.614;2023-01-16T08:21:28;18.35;;;6.53;;
31692;SDS011;37436;53.230;6.614;2023-01-16T08:23:54;13.40;;;6.18;;
31692;SDS011;37436;53.230;6.614;2023-01-16T08:26:21;20.88;;;6.85;;
31692;SDS011;37436;53.230;6.614;2023-01-16T08:28:47;22.70;;;7.07;;
31692;SDS011;37436;53.230;6.614;2023-01-16T08:31:14;15.63;;;6.82;;
31692;SDS011;37436;53.230;6.614;2023-01-16T08:33:41;12.57;;;5.82;;
31692;SDS011;37436;53.230;6.614;2023-01-16T08:36:08;19.00;;;6.35;;
31692;SDS011;37436;53.230;6.614;2023-01-16T08:38:35;17.67;;;6.20;;
31692;SDS011;37436;53.230;6.614;2023-01-16T08:41:01;17.73;;;7.07;;
31692;SDS011;37436;53.230;6.614;2023-01-16T08:43:27;13.70;;;5.43;;
31692;SDS011;37436;53.230;6.614;2023-01-16T08:46:22;21.05;;;6.30;;
31692;SDS011;37436;53.230;6.614;2023-01-16T08:49:10;18.55;;;5.85;;
31692;SDS011;37436;53.230;6.614;2023-01-16T08:51:56;16.50;;;4.70;;
31692;SDS011;37436;53.230;6.614;2023-01-16T08:54:25;18.10;;;5.22;;
31692;SDS011;37436;53.230;6.614;2023-01-16T08:56:51;17.98;;;5.80;;
31692;SDS011;37436;53.230;6.614;2023-01-16T08:59:17;17.75;;;5.97;;
31692;SDS011;37436;53.230;6.614;2023-01-16T09:01:44;10.15;;;5.18;;
31692;SDS011;37436;53.230;6.614;2023-01-16T09:04:12;15.30;;;5.60;;
31692;SDS011;37436;53.230;6.614;2023-01-16T09:06:38;16.30;;;5.53;;
31692;SDS011;37436;53.230;6.614;2023-01-16T09:09:05;28.08;;;6.30;;
31692;SDS011;37436;53.230;6.614;2023-01-16T09:11:34;12.98;;;5.65;;
31692;SDS011;37436;53.230;6.614;2023-01-16T09:14:18;18.58;;;5.93;;
31692;SDS011;37436;53.230;6.614;2023-01-16T09:16:45;13.05;;;5.22;;
31692;SDS011;37436;53.230;6.614;2023-01-16T09:19:11;16.52;;;5.07;;
31692;SDS011;37436;53.230;6.614;2023-01-16T09:21:37;12.23;;;5.30;;
31692;SDS011;37436;53.230;6.614;2023-01-16T09:24:03;16.10;;;4.93;;
31692;SDS011;37436;53.230;6.614;2023-01-16T09:26:29;15.75;;;4.72;;
31692;SDS011;37436;53.230;6.614;2023-01-16T09:28:56;16.05;;;5.45;;
31692;SDS011;37436;53.230;6.614;2023-01-16T09:31:22;10.75;;;4.28;;
31692;SDS011;37436;53.230;6.614;2023-01-16T09:33:48;10.55;;;4.38;;
31692;SDS011;37436;53.230;6.614;2023-01-16T09:36:19;12.35;;;5.18;;
31692;SDS011;37436;53.230;6.614;2023-01-16T09:38:45;14.88;;;4.88;;
31692;SDS011;37436;53.230;6.614;2023-01-16T09:41:15;11.48;;;4.15;;
31692;SDS011;37436;53.230;6.614;2023-01-16T09:44:01;12.63;;;4.45;;
31692;SDS011;37436;53.230;6.614;2023-01-16T09:46:27;11.25;;;5.05;;
31692;SDS011;37436;53.230;6.614;2023-01-16T09:51:22;13.43;;;4.65;;
31692;SDS011;37436;53.230;6.614;2023-01-16T09:56:55;11.13;;;4.38;;
31692;SDS011;37436;53.230;6.614;2023-01-16T09:59:50;11.68;;;3.85;;
31692;SDS011;37436;53.230;6.614;2023-01-16T10:05:13;8.73;;;4.05;;
31692;SDS011;37436;53.230;6.614;2023-01-16T10:15:24;13.80;;;3.30;;
31692;SDS011;37436;53.230;6.614;2023-01-16T10:26:17;9.38;;;3.03;;
31692;SDS011;37436;53.230;6.614;2023-01-16T10:31:23;10.98;;;4.03;;
31692;SDS011;37436;53.230;6.614;2023-01-16T10:33:52;11.82;;;3.28;;
31692;SDS011;37436;53.230;6.614;2023-01-16T10:36:22;9.88;;;2.78;;
31692;SDS011;37436;53.230;6.614;2023-01-16T10:38:52;6.93;;;2.30;;
31692;SDS011;37436;53.230;6.614;2023-01-16T10:41:22;5.00;;;2.58;;
31692;SDS011;37436;53.230;6.614;2023-01-16T10:44:22;7.70;;;2.45;;
31692;SDS011;37436;53.230;6.614;2023-01-16T10:47:10;14.45;;;3.15;;
31692;SDS011;37436;53.230;6.614;2023-01-16T10:49:55;11.13;;;3.15;;
31692;SDS011;37436;53.230;6.614;2023-01-16T10:52:21;8.73;;;2.70;;
31692;SDS011;37436;53.230;6.614;2023-01-16T10:54:49;10.55;;;2.67;;
31692;SDS011;37436;53.230;6.614;2023-01-16T10:57:16;6.10;;;2.25;;
31692;SDS011;37436;53.230;6.614;2023-01-16T10:59:43;6.10;;;2.92;;
31692;SDS011;37436;53.230;6.614;2023-01-16T11:02:24;5.50;;;2.72;;
31692;SDS011;37436;53.230;6.614;2023-01-16T11:04:53;5.50;;;1.95;;
31692;SDS011;37436;53.230;6.614;2023-01-16T11:07:19;7.82;;;2.08;;
31692;SDS011;37436;53.230;6.614;2023-01-16T11:09:46;6.70;;;1.83;;
31692;SDS011;37436;53.230;6.614;2023-01-16T11:12:30;3.75;;;1.92;;
31692;SDS011;37436;53.230;6.614;2023-01-16T11:15:20;3.67;;;1.80;;
31692;SDS011;37436;53.230;6.614;2023-01-16T11:24:44;5.75;;;1.67;;
31692;SDS011;37436;53.230;6.614;2023-01-16T11:26:52;5.95;;;1.20;;
31692;SDS011;37436;53.230;6.614;2023-01-16T11:29:20;2.63;;;1.38;;
31692;SDS011;37436;53.230;6.614;2023-01-16T11:31:55;4.15;;;1.65;;
31692;SDS011;37436;53.230;6.614;2023-01-16T11:34:22;6.38;;;1.30;;
31692;SDS011;37436;53.230;6.614;2023-01-16T11:36:52;4.05;;;1.02;;
31692;SDS011;37436;53.230;6.614;2023-01-16T11:39:19;6.55;;;1.60;;
31692;SDS011;37436;53.230;6.614;2023-01-16T11:41:50;7.00;;;1.40;;
31692;SDS011;37436;53.230;6.614;2023-01-16T11:47:02;1.35;;;0.95;;
31692;SDS011;37436;53.230;6.614;2023-01-16T11:49:39;1.98;;;1.17;;
31692;SDS011;37436;53.230;6.614;2023-01-16T11:52:05;9.13;;;1.60;;
31692;SDS011;37436;53.230;6.614;2023-01-16T11:54:38;4.85;;;1.63;;
31692;SDS011;37436;53.230;6.614;2023-01-16T11:59:55;6.22;;;1.77;;
31692;SDS011;37436;53.230;6.614;2023-01-16T12:10:25;3.80;;;1.63;;
31692;SDS011;37436;53.230;6.614;2023-01-16T12:13:04;3.00;;;1.50;;
31692;SDS011;37436;53.230;6.614;2023-01-16T12:15:56;3.20;;;1.27;;
31692;SDS011;37436;53.230;6.614;2023-01-16T12:21:20;3.03;;;1.30;;
31692;SDS011;37436;53.230;6.614;2023-01-16T12:23:53;2.78;;;1.38;;
31692;SDS011;37436;53.230;6.614;2023-01-16T12:26:28;5.85;;;1.63;;
31692;SDS011;37436;53.230;6.614;2023-01-16T12:37:12;1.67;;;1.08;;
31692;SDS011;37436;53.230;6.614;2023-01-16T12:50:43;2.45;;;1.63;;
31692;SDS011;37436;53.230;6.614;2023-01-16T12:53:27;8.75;;;1.85;;
31692;SDS011;37436;53.230;6.614;2023-01-16T12:58:42;5.47;;;1.77;;
31692;SDS011;37436;53.230;6.614;2023-01-16T13:01:12;4.88;;;2.28;;
31692;SDS011;37436;53.230;6.614;2023-01-16T13:03:57;2.55;;;1.65;;
31692;SDS011;37436;53.230;6.614;2023-01-16T13:06:46;3.13;;;1.73;;
31692;SDS011;37436;53.230;6.614;2023-01-16T13:11:57;5.72;;;1.40;;
31692;SDS011;37436;53.230;6.614;2023-01-16T13:14:44;4.57;;;1.52;;
31692;SDS011;37436;53.230;6.614;2023-01-16T13:17:18;3.30;;;1.98;;
31692;SDS011;37436;53.230;6.614;2023-01-16T13:20:05;7.47;;;2.25;;
31692;SDS011;37436;53.230;6.614;2023-01-16T13:27:57;5.82;;;2.47;;
31692;SDS011;37436;53.230;6.614;2023-01-16T13:30:24;4.15;;;2.72;;
31692;SDS011;37436;53.230;6.614;2023-01-16T13:32:52;8.32;;;3.88;;
31692;SDS011;37436;53.230;6.614;2023-01-16T13:42:50;2.75;;;2.35;;
31692;SDS011;37436;53.230;6.614;2023-01-16T13:45:27;8.77;;;2.55;;
31692;SDS011;37436;53.230;6.614;2023-01-16T13:48:13;4.57;;;2.50;;
31692;SDS011;37436;53.230;6.614;2023-01-16T13:50:42;8.30;;;2.50;;
31692;SDS011;37436;53.230;6.614;2023-01-16T13:53:11;6.20;;;2.20;;
31692;SDS011;37436;53.230;6.614;2023-01-16T13:55:39;2.45;;;1.90;;
31692;SDS011;37436;53.230;6.614;2023-01-16T13:58:20;6.38;;;1.83;;
31692;SDS011;37436;53.230;6.614;2023-01-16T14:01:00;10.82;;;2.55;;
31692;SDS011;37436;53.230;6.614;2023-01-16T14:03:33;3.95;;;1.92;;
31692;SDS011;37436;53.230;6.614;2023-01-16T14:08:48;3.28;;;2.35;;
31692;SDS011;37436;53.230;6.614;2023-01-16T14:11:33;3.10;;;1.88;;
31692;SDS011;37436;53.230;6.614;2023-01-16T14:17:20;2.47;;;1.45;;
31692;SDS011;37436;53.230;6.614;2023-01-16T14:22:25;4.45;;;2.42;;
31692;SDS011;37436;53.230;6.614;2023-01-16T14:24:52;6.47;;;2.13;;
31692;SDS011;37436;53.230;6.614;2023-01-16T14:27:19;6.13;;;1.92;;
31692;SDS011;37436;53.230;6.614;2023-01-16T14:32:17;3.17;;;1.88;;
31692;SDS011;37436;53.230;6.614;2023-01-16T14:35:03;6.00;;;1.63;;
31692;SDS011;37436;53.230;6.614;2023-01-16T14:37:38;2.72;;;2.08;;
31692;SDS011;37436;53.230;6.614;2023-01-16T14:50:54;5.22;;;2.00;;
31692;SDS011;37436;53.230;6.614;2023-01-16T14:53:39;4.93;;;2.40;;
31692;SDS011;37436;53.230;6.614;2023-01-16T14:56:32;10.38;;;3.05;;
31692;SDS011;37436;53.230;6.614;2023-01-16T14:59:02;6.07;;;2.53;;
31692;SDS011;37436;53.230;6.614;2023-01-16T15:01:49;6.32;;;2.60;;
31692;SDS011;37436;53.230;6.614;2023-01-16T15:04:42;7.82;;;2.40;;
31692;SDS011;37436;53.230;6.614;2023-01-16T15:07:14;2.30;;;1.80;;
31692;SDS011;37436;53.230;6.614;2023-01-16T15:09:45;3.28;;;2.13;;
31692;SDS011;37436;53.230;6.614;2023-01-16T15:12:17;7.40;;;2.00;;
31692;SDS011;37436;53.230;6.614;2023-01-16T15:14:54;2.22;;;1.65;;
31692;SDS011;37436;53.230;6.614;2023-01-16T15:31:47;4.32;;;1.80;;
31692;SDS011;37436;53.230;6.614;2023-01-16T15:37:30;8.55;;;1.75;;
31692;SDS011;37436;53.230;6.614;2023-01-16T15:39:57;3.80;;;2.00;;
31692;SDS011;37436;53.230;6.614;2023-01-16T15:42:30;3.63;;;1.30;;
31692;SDS011;37436;53.230;6.614;2023-01-16T15:45:16;8.65;;;1.92;;
31692;SDS011;37436;53.230;6.614;2023-01-16T15:48:20;5.93;;;1.77;;
31692;SDS011;37436;53.230;6.614;2023-01-16T15:50:56;2.80;;;1.73;;
31692;SDS011;37436;53.230;6.614;2023-01-16T15:53:35;3.10;;;1.70;;
31692;SDS011;37436;53.230;6.614;2023-01-16T16:01:51;6.63;;;1.80;;
31692;SDS011;37436;53.230;6.614;2023-01-16T16:04:18;4.82;;;1.70;;
31692;SDS011;37436;53.230;6.614;2023-01-16T16:06:45;4.68;;;1.75;;
31692;SDS011;37436;53.230;6.614;2023-01-16T16:09:21;4.00;;;1.80;;
31692;SDS011;37436;53.230;6.614;2023-01-16T16:11:48;1.85;;;1.63;;
31692;SDS011;37436;53.230;6.614;2023-01-16T16:20:25;3.83;;;1.60;;
31692;SDS011;37436;53.230;6.614;2023-01-16T16:23:00;4.90;;;1.92;;
31692;SDS011;37436;53.230;6.614;2023-01-16T16:28:28;6.63;;;2.53;;
31692;SDS011;37436;53.230;6.614;2023-01-16T16:33:44;2.00;;;1.60;;
31692;SDS011;37436;53.230;6.614;2023-01-16T16:36:21;2.78;;;1.90;;
31692;SDS011;37436;53.230;6.614;2023-01-16T16:38:49;6.30;;;2.05;;
31692;SDS011;37436;53.230;6.614;2023-01-16T16:43:49;6.05;;;2.00;;
31692;SDS011;37436;53.230;6.614;2023-01-16T16:51:42;12.57;;;2.80;;
31692;SDS011;37436;53.230;6.614;2023-01-16T16:54:09;5.65;;;3.00;;
31692;SDS011;37436;53.230;6.614;2023-01-16T16:56:38;5.65;;;3.25;;
31692;SDS011;37436;53.230;6.614;2023-01-16T16:59:05;4.18;;;2.78;;
31692;SDS011;37436;53.230;6.614;2023-01-16T17:01:32;6.03;;;3.00;;
31692;SDS011;37436;53.230;6.614;2023-01-16T17:04:00;5.63;;;2.95;;
31692;SDS011;37436;53.230;6.614;2023-01-16T17:06:29;8.35;;;3.42;;
31692;SDS011;37436;53.230;6.614;2023-01-16T17:09:15;4.28;;;2.80;;
31692;SDS011;37436;53.230;6.614;2023-01-16T17:11:58;7.30;;;3.25;;
31692;SDS011;37436;53.230;6.614;2023-01-16T17:14:33;6.47;;;3.55;;
31692;SDS011;37436;53.230;6.614;2023-01-16T17:17:40;5.82;;;3.15;;
31692;SDS011;37436;53.230;6.614;2023-01-16T17:20:35;4.00;;;2.65;;
31692;SDS011;37436;53.230;6.614;2023-01-16T17:23:16;4.93;;;2.60;;
31692;SDS011;37436;53.230;6.614;2023-01-16T17:25:50;3.37;;;1.83;;
31692;SDS011;37436;53.230;6.614;2023-01-16T17:28:27;3.10;;;2.53;;
31692;SDS011;37436;53.230;6.614;2023-01-16T17:31:31;2.78;;;1.95;;
31692;SDS011;37436;53.230;6.614;2023-01-16T17:34:01;4.15;;;2.22;;
31692;SDS011;37436;53.230;6.614;2023-01-16T17:36:35;4.75;;;2.55;;
31692;SDS011;37436;53.230;6.614;2023-01-16T17:39:05;4.97;;;2.00;;
31692;SDS011;37436;53.230;6.614;2023-01-16T17:41:40;12.68;;;3.20;;
31692;SDS011;37436;53.230;6.614;2023-01-16T17:44:16;5.45;;;3.70;;
31692;SDS011;37436;53.230;6.614;2023-01-16T17:47:13;4.40;;;2.95;;
31692;SDS011;37436;53.230;6.614;2023-01-16T17:49:50;5.82;;;3.70;;
31692;SDS011;37436;53.230;6.614;2023-01-16T17:52:37;12.95;;;3.70;;
31692;SDS011;37436;53.230;6.614;2023-01-16T17:55:24;6.90;;;3.83;;
31692;SDS011;37436;53.230;6.614;2023-01-16T17:58:12;10.93;;;3.63;;
31692;SDS011;37436;53.230;6.614;2023-01-16T18:00:39;7.25;;;3.00;;
31692;SDS011;37436;53.230;6.614;2023-01-16T18:03:07;6.25;;;3.35;;
31692;SDS011;37436;53.230;6.614;2023-01-16T18:05:35;5.70;;;3.20;;
31692;SDS011;37436;53.230;6.614;2023-01-16T18:08:01;8.93;;;4.22;;
31692;SDS011;37436;53.230;6.614;2023-01-16T18:10:28;6.53;;;3.97;;
31692;SDS011;37436;53.230;6.614;2023-01-16T18:12:54;7.15;;;4.10;;
31692;SDS011;37436;53.230;6.614;2023-01-16T18:15:38;8.18;;;3.78;;
31692;SDS011;37436;53.230;6.614;2023-01-16T18:18:23;7.38;;;4.43;;